sensor_id;sensor_type;location;lat;lon;timestamp;P1;durP1;ratioP1;P2;durP2;ratioP2
85701;SDS011;76139;50.888;3.882;2024-03-23T00:53:51;17.13;;;9.93;;
85701;SDS011;76139;50.888;3.882;2024-03-23T00:56:17;24.67;;;9.90;;
85701;SDS011;76139;50.888;3.882;2024-03-23T00:58:42;23.10;;;9.75;;
85701;SDS011;76139;50.888;3.882;2024-03-23T01:01:08;20.77;;;9.38;;
85701;SDS011;76139;50.888;3.882;2024-03-23T01:03:34;25.08;;;10.75;;
85701;SDS011;76139;50.888;3.882;2024-03-23T01:06:00;22.17;;;9.75;;
85701;SDS011;76139;50.888;3.882;2024-03-23T01:08:26;21.08;;;10.68;;
85701;SDS011;76139;50.888;3.882;2024-03-23T01:10:55;25.73;;;10.52;;
85701;SDS011;76139;50.888;3.882;2024-03-23T01:13:22;23.90;;;11.38;;
85701;SDS011;76139;50.888;3.882;2024-03-23T01:15:51;26.38;;;11.48;;
85701;SDS011;76139;50.888;3.882;2024-03-23T01:18:18;26.70;;;10.93;;
85701;SDS011;76139;50.888;3.882;2024-03-23T01:20:45;23.85;;;11.27;;
85701;SDS011;76139;50.888;3.882;2024-03-23T01:23:11;24.73;;;11.82;;
85701;SDS011;76139;50.888;3.882;2024-03-23T01:25:37;25.88;;;11.73;;
85701;SDS011;76139;50.888;3.882;2024-03-23T01:28:03;23.13;;;12.02;;
85701;SDS011;76139;50.888;3.882;2024-03-23T01:30:29;24.73;;;12.40;;
85701;SDS011;76139;50.888;3.882;2024-03-23T01:32:55;24.50;;;12.73;;
85701;SDS011;76139;50.888;3.882;2024-03-23T01:35:21;23.25;;;12.02;;
85701;SDS011;76139;50.888;3.882;2024-03-23T01:37:48;23.55;;;11.63;;
85701;SDS011;76139;50.888;3.882;2024-03-23T01:40:13;24.55;;;11.60;;
85701;SDS011;76139;50.888;3.882;2024-03-23T01:42:41;26.75;;;12.32;;
85701;SDS011;76139;50.888;3.882;2024-03-23T01:45:07;21.42;;;11.38;;
85701;SDS011;76139;50.888;3.882;2024-03-23T01:47:37;23.65;;;12.43;;
85701;SDS011;76139;50.888;3.882;2024-03-23T01:50:03;21.98;;;12.23;;
85701;SDS011;76139;50.888;3.882;2024-03-23T01:52:29;23.10;;;11.40;;
85701;SDS011;76139;50.888;3.882;2024-03-23T01:54:55;27.08;;;12.23;;
85701;SDS011;76139;50.888;3.882;2024-03-23T01:57:21;25.98;;;12.30;;
85701;SDS011;76139;50.888;3.882;2024-03-23T01:59:47;23.88;;;11.73;;
85701;SDS011;76139;50.888;3.882;2024-03-23T02:02:13;23.00;;;10.82;;
85701;SDS011;76139;50.888;3.882;2024-03-23T02:04:39;24.75;;;11.73;;
85701;SDS011;76139;50.888;3.882;2024-03-23T02:07:06;20.52;;;11.10;;
85701;SDS011;76139;50.888;3.882;2024-03-23T02:09:32;23.08;;;10.85;;
85701;SDS011;76139;50.888;3.882;2024-03-23T02:11:58;26.15;;;12.27;;
85701;SDS011;76139;50.888;3.882;2024-03-23T02:14:24;18.65;;;11.02;;
85701;SDS011;76139;50.888;3.882;2024-03-23T02:16:49;20.75;;;12.35;;
85701;SDS011;76139;50.888;3.882;2024-03-23T02:19:15;22.00;;;10.40;;
85701;SDS011;76139;50.888;3.882;2024-03-23T02:21:41;23.73;;;10.18;;
85701;SDS011;76139;50.888;3.882;2024-03-23T02:24:07;22.42;;;10.73;;
85701;SDS011;76139;50.888;3.882;2024-03-23T02:26:32;21.70;;;11.38;;
85701;SDS011;76139;50.888;3.882;2024-03-23T02:28:58;19.75;;;10.32;;
85701;SDS011;76139;50.888;3.882;2024-03-23T02:31:24;22.45;;;11.05;;
85701;SDS011;76139;50.888;3.882;2024-03-23T02:33:49;20.23;;;10.50;;
85701;SDS011;76139;50.888;3.882;2024-03-23T02:36:15;18.63;;;9.98;;
85701;SDS011;76139;50.888;3.882;2024-03-23T02:38:41;15.68;;;9.18;;
85701;SDS011;76139;50.888;3.882;2024-03-23T02:41:07;19.55;;;9.82;;
85701;SDS011;76139;50.888;3.882;2024-03-23T02:43:32;14.98;;;9.15;;
85701;SDS011;76139;50.888;3.882;2024-03-23T02:45:58;17.70;;;7.90;;
85701;SDS011;76139;50.888;3.882;2024-03-23T02:48:24;18.13;;;8.65;;
85701;SDS011;76139;50.888;3.882;2024-03-23T02:50:50;21.05;;;8.55;;
85701;SDS011;76139;50.888;3.882;2024-03-23T02:53:16;18.23;;;7.75;;
85701;SDS011;76139;50.888;3.882;2024-03-23T02:55:42;19.63;;;7.18;;
85701;SDS011;76139;50.888;3.882;2024-03-23T02:58:08;12.27;;;6.53;;
85701;SDS011;76139;50.888;3.882;2024-03-23T03:00:34;13.57;;;6.85;;
85701;SDS011;76139;50.888;3.882;2024-03-23T03:02:59;15.88;;;7.07;;
85701;SDS011;76139;50.888;3.882;2024-03-23T03:05:25;12.63;;;6.45;;
85701;SDS011;76139;50.888;3.882;2024-03-23T03:07:50;13.85;;;6.57;;
85701;SDS011;76139;50.888;3.882;2024-03-23T03:10:16;12.15;;;6.50;;
85701;SDS011;76139;50.888;3.882;2024-03-23T03:12:42;16.67;;;6.30;;
85701;SDS011;76139;50.888;3.882;2024-03-23T03:15:08;19.23;;;7.10;;
85701;SDS011;76139;50.888;3.882;2024-03-23T03:17:34;12.60;;;5.53;;
85701;SDS011;76139;50.888;3.882;2024-03-23T03:20:00;13.27;;;6.47;;
85701;SDS011;76139;50.888;3.882;2024-03-23T03:22:26;15.10;;;6.68;;
85701;SDS011;76139;50.888;3.882;2024-03-23T03:24:51;16.60;;;6.70;;
85701;SDS011;76139;50.888;3.882;2024-03-23T03:27:17;14.98;;;5.90;;
85701;SDS011;76139;50.888;3.882;2024-03-23T03:29:43;12.95;;;6.18;;
85701;SDS011;76139;50.888;3.882;2024-03-23T03:32:08;17.92;;;6.88;;
85701;SDS011;76139;50.888;3.882;2024-03-23T03:34:34;16.15;;;7.15;;
85701;SDS011;76139;50.888;3.882;2024-03-23T03:37:00;13.10;;;6.90;;
85701;SDS011;76139;50.888;3.882;2024-03-23T03:39:25;15.20;;;7.20;;
85701;SDS011;76139;50.888;3.882;2024-03-23T03:41:51;16.73;;;7.50;;
85701;SDS011;76139;50.888;3.882;2024-03-23T03:44:17;17.08;;;7.78;;
85701;SDS011;76139;50.888;3.882;2024-03-23T03:46:43;25.23;;;8.38;;
85701;SDS011;76139;50.888;3.882;2024-03-23T03:49:09;21.77;;;7.25;;
85701;SDS011;76139;50.888;3.882;2024-03-23T03:51:35;14.25;;;7.32;;
85701;SDS011;76139;50.888;3.882;2024-03-23T03:54:00;20.05;;;8.52;;
85701;SDS011;76139;50.888;3.882;2024-03-23T03:56:26;14.23;;;7.90;;
85701;SDS011;76139;50.888;3.882;2024-03-23T03:58:52;15.75;;;7.20;;
85701;SDS011;76139;50.888;3.882;2024-03-23T04:01:19;17.60;;;8.00;;
85701;SDS011;76139;50.888;3.882;2024-03-23T04:03:45;17.50;;;6.95;;
85701;SDS011;76139;50.888;3.882;2024-03-23T04:06:11;16.15;;;7.25;;
85701;SDS011;76139;50.888;3.882;2024-03-23T04:08:37;16.30;;;7.80;;
85701;SDS011;76139;50.888;3.882;2024-03-23T04:11:03;13.75;;;7.55;;
85701;SDS011;76139;50.888;3.882;2024-03-23T04:13:29;16.98;;;6.50;;
85701;SDS011;76139;50.888;3.882;2024-03-23T04:15:55;19.42;;;6.03;;
85701;SDS011;76139;50.888;3.882;2024-03-23T04:18:21;11.82;;;6.45;;
85701;SDS011;76139;50.888;3.882;2024-03-23T04:20:47;14.35;;;6.32;;
85701;SDS011;76139;50.888;3.882;2024-03-23T04:23:15;11.63;;;5.95;;
85701;SDS011;76139;50.888;3.882;2024-03-23T04:25:41;16.27;;;6.00;;
85701;SDS011;76139;50.888;3.882;2024-03-23T04:28:07;12.43;;;6.15;;
85701;SDS011;76139;50.888;3.882;2024-03-23T04:30:33;11.75;;;5.35;;
85701;SDS011;76139;50.888;3.882;2024-03-23T04:32:59;15.40;;;5.57;;
85701;SDS011;76139;50.888;3.882;2024-03-23T04:35:26;8.95;;;4.75;;
85701;SDS011;76139;50.888;3.882;2024-03-23T04:37:52;17.98;;;4.68;;
85701;SDS011;76139;50.888;3.882;2024-03-23T04:40:18;11.10;;;4.70;;
85701;SDS011;76139;50.888;3.882;2024-03-23T04:42:44;9.57;;;4.22;;
85701;SDS011;76139;50.888;3.882;2024-03-23T04:45:10;14.10;;;4.38;;
85701;SDS011;76139;50.888;3.882;2024-03-23T04:47:36;10.00;;;3.83;;
85701;SDS011;76139;50.888;3.882;2024-03-23T04:50:03;14.00;;;4.35;;
85701;SDS011;76139;50.888;3.882;2024-03-23T04:52:29;12.05;;;4.35;;
85701;SDS011;76139;50.888;3.882;2024-03-23T04:54:55;10.18;;;3.72;;
85701;SDS011;76139;50.888;3.882;2024-03-23T04:57:21;8.07;;;3.33;;
85701;SDS011;76139;50.888;3.882;2024-03-23T04:59:47;10.55;;;3.83;;
85701;SDS011;76139;50.888;3.882;2024-03-23T05:02:13;9.00;;;2.97;;
85701;SDS011;76139;50.888;3.882;2024-03-23T05:04:39;14.05;;;3.70;;
85701;SDS011;76139;50.888;3.882;2024-03-23T05:07:05;10.38;;;3.47;;
85701;SDS011;76139;50.888;3.882;2024-03-23T05:09:31;10.13;;;2.95;;
85701;SDS011;76139;50.888;3.882;2024-03-23T05:11:58;13.43;;;3.33;;
85701;SDS011;76139;50.888;3.882;2024-03-23T05:14:25;10.07;;;3.28;;
85701;SDS011;76139;50.888;3.882;2024-03-23T05:16:52;8.85;;;3.15;;
85701;SDS011;76139;50.888;3.882;2024-03-23T05:19:18;9.38;;;2.92;;
85701;SDS011;76139;50.888;3.882;2024-03-23T05:21:44;9.23;;;2.70;;
85701;SDS011;76139;50.888;3.882;2024-03-23T05:24:10;11.20;;;2.80;;
85701;SDS011;76139;50.888;3.882;2024-03-23T05:26:37;7.72;;;3.10;;
85701;SDS011;76139;50.888;3.882;2024-03-23T05:29:03;10.65;;;2.97;;
85701;SDS011;76139;50.888;3.882;2024-03-23T05:31:29;13.48;;;3.35;;
85701;SDS011;76139;50.888;3.882;2024-03-23T05:33:56;13.38;;;3.55;;
85701;SDS011;76139;50.888;3.882;2024-03-23T05:36:22;14.10;;;3.40;;
85701;SDS011;76139;50.888;3.882;2024-03-23T05:38:48;8.63;;;2.67;;
85701;SDS011;76139;50.888;3.882;2024-03-23T05:41:14;10.35;;;2.92;;
85701;SDS011;76139;50.888;3.882;2024-03-23T05:43:40;9.65;;;2.90;;
85701;SDS011;76139;50.888;3.882;2024-03-23T05:46:06;12.63;;;3.22;;
85701;SDS011;76139;50.888;3.882;2024-03-23T05:48:32;15.45;;;4.65;;
85701;SDS011;76139;50.888;3.882;2024-03-23T05:50:58;10.27;;;2.92;;
85701;SDS011;76139;50.888;3.882;2024-03-23T05:53:24;9.60;;;3.50;;
85701;SDS011;76139;50.888;3.882;2024-03-23T05:55:50;15.93;;;3.60;;
85701;SDS011;76139;50.888;3.882;2024-03-23T05:58:18;7.82;;;2.78;;
85701;SDS011;76139;50.888;3.882;2024-03-23T06:00:45;12.43;;;3.10;;
85701;SDS011;76139;50.888;3.882;2024-03-23T06:03:11;13.20;;;2.58;;
85701;SDS011;76139;50.888;3.882;2024-03-23T06:05:37;9.13;;;2.88;;
85701;SDS011;76139;50.888;3.882;2024-03-23T06:08:03;9.60;;;3.30;;
85701;SDS011;76139;50.888;3.882;2024-03-23T06:10:29;8.73;;;3.03;;
85701;SDS011;76139;50.888;3.882;2024-03-23T06:12:56;11.77;;;3.50;;
85701;SDS011;76139;50.888;3.882;2024-03-23T06:15:23;11.18;;;2.78;;
85701;SDS011;76139;50.888;3.882;2024-03-23T06:17:49;8.52;;;2.72;;
85701;SDS011;76139;50.888;3.882;2024-03-23T06:20:15;10.30;;;3.10;;
85701;SDS011;76139;50.888;3.882;2024-03-23T06:22:41;10.98;;;3.28;;
85701;SDS011;76139;50.888;3.882;2024-03-23T06:25:07;6.88;;;2.95;;
85701;SDS011;76139;50.888;3.882;2024-03-23T06:27:33;8.43;;;3.20;;
85701;SDS011;76139;50.888;3.882;2024-03-23T06:29:59;9.55;;;2.72;;
85701;SDS011;76139;50.888;3.882;2024-03-23T06:32:25;8.70;;;2.53;;
85701;SDS011;76139;50.888;3.882;2024-03-23T06:34:52;10.40;;;2.15;;
85701;SDS011;76139;50.888;3.882;2024-03-23T06:37:18;11.10;;;2.95;;
85701;SDS011;76139;50.888;3.882;2024-03-23T06:39:45;7.30;;;2.63;;
85701;SDS011;76139;50.888;3.882;2024-03-23T06:42:11;8.77;;;2.85;;
85701;SDS011;76139;50.888;3.882;2024-03-23T06:44:37;8.80;;;3.05;;
85701;SDS011;76139;50.888;3.882;2024-03-23T06:47:03;10.27;;;2.88;;
85701;SDS011;76139;50.888;3.882;2024-03-23T06:49:29;11.23;;;2.92;;
85701;SDS011;76139;50.888;3.882;2024-03-23T06:51:54;14.95;;;2.65;;
85701;SDS011;76139;50.888;3.882;2024-03-23T06:54:20;8.68;;;2.40;;
85701;SDS011;76139;50.888;3.882;2024-03-23T06:56:46;9.88;;;2.45;;
85701;SDS011;76139;50.888;3.882;2024-03-23T06:59:12;6.93;;;2.55;;
85701;SDS011;76139;50.888;3.882;2024-03-23T07:01:37;7.38;;;2.42;;
85701;SDS011;76139;50.888;3.882;2024-03-23T07:04:03;12.88;;;2.92;;
85701;SDS011;76139;50.888;3.882;2024-03-23T07:06:30;10.77;;;3.67;;
85701;SDS011;76139;50.888;3.882;2024-03-23T07:08:56;7.22;;;2.67;;
85701;SDS011;76139;50.888;3.882;2024-03-23T07:11:22;7.75;;;2.70;;
85701;SDS011;76139;50.888;3.882;2024-03-23T07:13:51;11.68;;;3.35;;
85701;SDS011;76139;50.888;3.882;2024-03-23T07:16:19;14.80;;;3.72;;
85701;SDS011;76139;50.888;3.882;2024-03-23T07:18:45;9.98;;;2.42;;
85701;SDS011;76139;50.888;3.882;2024-03-23T07:21:11;8.30;;;2.70;;
85701;SDS011;76139;50.888;3.882;2024-03-23T07:23:37;14.10;;;3.15;;
85701;SDS011;76139;50.888;3.882;2024-03-23T07:26:04;7.93;;;2.83;;
85701;SDS011;76139;50.888;3.882;2024-03-23T07:28:31;7.50;;;2.45;;
85701;SDS011;76139;50.888;3.882;2024-03-23T07:31:05;13.80;;;3.10;;
85701;SDS011;76139;50.888;3.882;2024-03-23T07:33:37;6.72;;;2.42;;
85701;SDS011;76139;50.888;3.882;2024-03-23T07:36:06;6.90;;;2.90;;
85701;SDS011;76139;50.888;3.882;2024-03-23T07:38:32;11.15;;;2.50;;
85701;SDS011;76139;50.888;3.882;2024-03-23T07:41:11;10.98;;;2.92;;
85701;SDS011;76139;50.888;3.882;2024-03-23T07:43:40;11.00;;;2.92;;
85701;SDS011;76139;50.888;3.882;2024-03-23T07:46:06;9.10;;;3.28;;
85701;SDS011;76139;50.888;3.882;2024-03-23T07:48:32;9.73;;;2.58;;
85701;SDS011;76139;50.888;3.882;2024-03-23T07:53:28;11.48;;;2.20;;
85701;SDS011;76139;50.888;3.882;2024-03-23T07:55:55;10.13;;;2.35;;
85701;SDS011;76139;50.888;3.882;2024-03-23T07:58:22;8.68;;;2.60;;
85701;SDS011;76139;50.888;3.882;2024-03-23T08:00:47;9.52;;;2.20;;
85701;SDS011;76139;50.888;3.882;2024-03-23T08:03:13;7.60;;;2.25;;
85701;SDS011;76139;50.888;3.882;2024-03-23T08:05:39;9.25;;;3.00;;
85701;SDS011;76139;50.888;3.882;2024-03-23T08:08:05;8.85;;;2.53;;
85701;SDS011;76139;50.888;3.882;2024-03-23T08:10:31;11.50;;;2.20;;
85701;SDS011;76139;50.888;3.882;2024-03-23T08:12:57;8.27;;;1.80;;
85701;SDS011;76139;50.888;3.882;2024-03-23T08:15:22;7.32;;;1.90;;
85701;SDS011;76139;50.888;3.882;2024-03-23T08:17:49;7.80;;;1.88;;
85701;SDS011;76139;50.888;3.882;2024-03-23T08:20:15;5.80;;;1.85;;
85701;SDS011;76139;50.888;3.882;2024-03-23T08:22:40;5.18;;;2.10;;
85701;SDS011;76139;50.888;3.882;2024-03-23T08:25:06;7.07;;;2.05;;
85701;SDS011;76139;50.888;3.882;2024-03-23T08:27:32;6.90;;;2.15;;
85701;SDS011;76139;50.888;3.882;2024-03-23T08:29:58;6.20;;;2.30;;
85701;SDS011;76139;50.888;3.882;2024-03-23T08:32:23;6.43;;;2.25;;
85701;SDS011;76139;50.888;3.882;2024-03-23T08:34:49;10.70;;;2.10;;
85701;SDS011;76139;50.888;3.882;2024-03-23T08:37:15;5.07;;;2.65;;
85701;SDS011;76139;50.888;3.882;2024-03-23T08:39:43;7.53;;;2.40;;
85701;SDS011;76139;50.888;3.882;2024-03-23T08:42:08;6.82;;;2.63;;
85701;SDS011;76139;50.888;3.882;2024-03-23T08:44:34;9.82;;;2.67;;
85701;SDS011;76139;50.888;3.882;2024-03-23T08:47:01;5.88;;;2.70;;
85701;SDS011;76139;50.888;3.882;2024-03-23T08:49:26;7.35;;;2.90;;
85701;SDS011;76139;50.888;3.882;2024-03-23T08:51:52;3.75;;;2.35;;
85701;SDS011;76139;50.888;3.882;2024-03-23T08:54:19;7.30;;;2.30;;
85701;SDS011;76139;50.888;3.882;2024-03-23T08:56:47;6.57;;;2.65;;
85701;SDS011;76139;50.888;3.882;2024-03-23T08:59:13;12.02;;;3.10;;
85701;SDS011;76139;50.888;3.882;2024-03-23T09:01:39;7.70;;;2.88;;
85701;SDS011;76139;50.888;3.882;2024-03-23T09:04:04;8.27;;;2.92;;
85701;SDS011;76139;50.888;3.882;2024-03-23T09:06:30;10.90;;;3.10;;
85701;SDS011;76139;50.888;3.882;2024-03-23T09:08:56;11.05;;;4.35;;
85701;SDS011;76139;50.888;3.882;2024-03-23T09:11:21;12.73;;;3.67;;
85701;SDS011;76139;50.888;3.882;2024-03-23T09:13:47;7.82;;;2.80;;
85701;SDS011;76139;50.888;3.882;2024-03-23T09:16:13;6.13;;;2.50;;
85701;SDS011;76139;50.888;3.882;2024-03-23T09:18:38;6.97;;;2.88;;
85701;SDS011;76139;50.888;3.882;2024-03-23T09:21:04;9.48;;;3.50;;
85701;SDS011;76139;50.888;3.882;2024-03-23T09:23:37;9.77;;;2.85;;
85701;SDS011;76139;50.888;3.882;2024-03-23T09:26:03;7.10;;;3.05;;
85701;SDS011;76139;50.888;3.882;2024-03-23T09:28:29;9.80;;;2.95;;
85701;SDS011;76139;50.888;3.882;2024-03-23T09:30:55;6.00;;;3.30;;
85701;SDS011;76139;50.888;3.882;2024-03-23T09:33:27;6.07;;;3.00;;
85701;SDS011;76139;50.888;3.882;2024-03-23T09:35:54;10.48;;;3.78;;
85701;SDS011;76139;50.888;3.882;2024-03-23T09:38:21;7.63;;;3.53;;
85701;SDS011;76139;50.888;3.882;2024-03-23T09:40:52;10.10;;;3.90;;
85701;SDS011;76139;50.888;3.882;2024-03-23T09:43:18;9.60;;;4.07;;
85701;SDS011;76139;50.888;3.882;2024-03-23T09:45:44;8.48;;;3.50;;
85701;SDS011;76139;50.888;3.882;2024-03-23T09:48:11;10.75;;;3.88;;
85701;SDS011;76139;50.888;3.882;2024-03-23T09:50:37;9.45;;;3.58;;
85701;SDS011;76139;50.888;3.882;2024-03-23T09:53:10;15.60;;;4.03;;
85701;SDS011;76139;50.888;3.882;2024-03-23T09:55:37;10.48;;;3.65;;
85701;SDS011;76139;50.888;3.882;2024-03-23T09:58:04;6.50;;;3.78;;
85701;SDS011;76139;50.888;3.882;2024-03-23T10:00:34;9.23;;;3.20;;
85701;SDS011;76139;50.888;3.882;2024-03-23T10:03:00;9.10;;;3.05;;
85701;SDS011;76139;50.888;3.882;2024-03-23T10:05:30;8.70;;;2.75;;
85701;SDS011;76139;50.888;3.882;2024-03-23T10:07:59;8.07;;;3.55;;
85701;SDS011;76139;50.888;3.882;2024-03-23T10:10:25;7.57;;;3.65;;
85701;SDS011;76139;50.888;3.882;2024-03-23T10:12:51;7.28;;;2.63;;
85701;SDS011;76139;50.888;3.882;2024-03-23T10:15:20;7.40;;;2.70;;
85701;SDS011;76139;50.888;3.882;2024-03-23T10:17:47;7.22;;;2.38;;
85701;SDS011;76139;50.888;3.882;2024-03-23T10:20:13;5.38;;;2.20;;
85701;SDS011;76139;50.888;3.882;2024-03-23T10:22:45;7.03;;;2.28;;
85701;SDS011;76139;50.888;3.882;2024-03-23T10:25:11;7.85;;;2.58;;
85701;SDS011;76139;50.888;3.882;2024-03-23T10:27:38;5.75;;;1.98;;
85701;SDS011;76139;50.888;3.882;2024-03-23T10:30:11;6.57;;;1.95;;
85701;SDS011;76139;50.888;3.882;2024-03-23T10:32:39;5.53;;;1.83;;
85701;SDS011;76139;50.888;3.882;2024-03-23T10:35:18;7.75;;;1.95;;
85701;SDS011;76139;50.888;3.882;2024-03-23T10:37:47;5.38;;;1.80;;
85701;SDS011;76139;50.888;3.882;2024-03-23T10:40:15;7.45;;;2.03;;
85701;SDS011;76139;50.888;3.882;2024-03-23T10:42:41;6.78;;;1.60;;
85701;SDS011;76139;50.888;3.882;2024-03-23T10:45:08;4.60;;;1.40;;
85701;SDS011;76139;50.888;3.882;2024-03-23T10:47:34;6.78;;;1.58;;
85701;SDS011;76139;50.888;3.882;2024-03-23T10:50:01;4.32;;;1.30;;
85701;SDS011;76139;50.888;3.882;2024-03-23T10:52:28;2.60;;;1.13;;
85701;SDS011;76139;50.888;3.882;2024-03-23T10:54:54;2.47;;;1.20;;
85701;SDS011;76139;50.888;3.882;2024-03-23T10:57:23;2.97;;;1.08;;
85701;SDS011;76139;50.888;3.882;2024-03-23T10:59:55;2.78;;;0.95;;
85701;SDS011;76139;50.888;3.882;2024-03-23T11:02:22;3.38;;;1.30;;
85701;SDS011;76139;50.888;3.882;2024-03-23T11:04:47;4.93;;;1.20;;
85701;SDS011;76139;50.888;3.882;2024-03-23T11:07:47;5.95;;;1.20;;
85701;SDS011;76139;50.888;3.882;2024-03-23T11:10:47;7.28;;;1.33;;
85701;SDS011;76139;50.888;3.882;2024-03-23T11:13:21;5.47;;;1.30;;
85701;SDS011;76139;50.888;3.882;2024-03-23T11:15:48;8.10;;;1.50;;
85701;SDS011;76139;50.888;3.882;2024-03-23T11:18:20;8.38;;;1.40;;
85701;SDS011;76139;50.888;3.882;2024-03-23T11:20:46;1.80;;;1.00;;
85701;SDS011;76139;50.888;3.882;2024-03-23T11:23:28;5.88;;;1.10;;
85701;SDS011;76139;50.888;3.882;2024-03-23T11:25:53;6.60;;;1.30;;
85701;SDS011;76139;50.888;3.882;2024-03-23T11:28:19;4.72;;;1.35;;
85701;SDS011;76139;50.888;3.882;2024-03-23T11:30:45;4.90;;;1.48;;
85701;SDS011;76139;50.888;3.882;2024-03-23T11:33:11;4.85;;;1.23;;
85701;SDS011;76139;50.888;3.882;2024-03-23T11:35:38;5.50;;;1.00;;
85701;SDS011;76139;50.888;3.882;2024-03-23T11:40:32;3.50;;;1.00;;
85701;SDS011;76139;50.888;3.882;2024-03-23T11:42:59;2.22;;;0.95;;
85701;SDS011;76139;50.888;3.882;2024-03-23T11:45:48;3.75;;;0.80;;
85701;SDS011;76139;50.888;3.882;2024-03-23T11:48:18;3.85;;;0.85;;
85701;SDS011;76139;50.888;3.882;2024-03-23T11:50:46;2.60;;;0.80;;
85701;SDS011;76139;50.888;3.882;2024-03-23T11:53:14;5.95;;;1.10;;
85701;SDS011;76139;50.888;3.882;2024-03-23T11:55:42;2.08;;;0.98;;
85701;SDS011;76139;50.888;3.882;2024-03-23T11:58:15;3.05;;;1.10;;
85701;SDS011;76139;50.888;3.882;2024-03-23T12:03:27;5.93;;;1.10;;
85701;SDS011;76139;50.888;3.882;2024-03-23T12:05:58;5.68;;;1.50;;
85701;SDS011;76139;50.888;3.882;2024-03-23T12:11:04;5.35;;;1.50;;
85701;SDS011;76139;50.888;3.882;2024-03-23T12:13:29;5.47;;;1.27;;
85701;SDS011;76139;50.888;3.882;2024-03-23T12:15:57;5.95;;;1.48;;
85701;SDS011;76139;50.888;3.882;2024-03-23T12:18:47;4.35;;;1.15;;
85701;SDS011;76139;50.888;3.882;2024-03-23T12:21:14;5.43;;;1.75;;
85701;SDS011;76139;50.888;3.882;2024-03-23T12:23:41;5.95;;;1.67;;
85701;SDS011;76139;50.888;3.882;2024-03-23T12:26:09;5.13;;;1.13;;
85701;SDS011;76139;50.888;3.882;2024-03-23T12:28:36;5.03;;;1.55;;
85701;SDS011;76139;50.888;3.882;2024-03-23T12:31:02;3.30;;;1.42;;
85701;SDS011;76139;50.888;3.882;2024-03-23T12:33:28;4.65;;;1.10;;
85701;SDS011;76139;50.888;3.882;2024-03-23T12:35:54;4.28;;;1.48;;
85701;SDS011;76139;50.888;3.882;2024-03-23T12:38:20;5.00;;;1.17;;
85701;SDS011;76139;50.888;3.882;2024-03-23T12:40:46;2.97;;;0.95;;
85701;SDS011;76139;50.888;3.882;2024-03-23T12:43:15;4.95;;;1.10;;
85701;SDS011;76139;50.888;3.882;2024-03-23T12:45:46;4.63;;;0.98;;
85701;SDS011;76139;50.888;3.882;2024-03-23T12:48:12;4.90;;;1.38;;
85701;SDS011;76139;50.888;3.882;2024-03-23T12:50:38;4.00;;;1.45;;
85701;SDS011;76139;50.888;3.882;2024-03-23T12:53:04;2.55;;;0.82;;
85701;SDS011;76139;50.888;3.882;2024-03-23T12:55:29;4.00;;;0.90;;
85701;SDS011;76139;50.888;3.882;2024-03-23T12:57:55;2.72;;;1.33;;
85701;SDS011;76139;50.888;3.882;2024-03-23T13:00:21;4.13;;;1.02;;
85701;SDS011;76139;50.888;3.882;2024-03-23T13:02:47;4.00;;;1.30;;
85701;SDS011;76139;50.888;3.882;2024-03-23T13:05:13;6.32;;;1.48;;
85701;SDS011;76139;50.888;3.882;2024-03-23T13:07:39;5.00;;;1.10;;
85701;SDS011;76139;50.888;3.882;2024-03-23T13:10:07;3.70;;;1.20;;
85701;SDS011;76139;50.888;3.882;2024-03-23T13:12:34;4.95;;;1.98;;
85701;SDS011;76139;50.888;3.882;2024-03-23T13:15:00;4.18;;;0.80;;
85701;SDS011;76139;50.888;3.882;2024-03-23T13:17:26;5.32;;;1.30;;
85701;SDS011;76139;50.888;3.882;2024-03-23T13:19:55;5.18;;;1.45;;
85701;SDS011;76139;50.888;3.882;2024-03-23T13:22:21;5.72;;;1.20;;
85701;SDS011;76139;50.888;3.882;2024-03-23T13:24:47;2.08;;;0.80;;
85701;SDS011;76139;50.888;3.882;2024-03-23T13:27:13;2.25;;;0.95;;
85701;SDS011;76139;50.888;3.882;2024-03-23T13:29:38;3.10;;;0.98;;
85701;SDS011;76139;50.888;3.882;2024-03-23T13:32:04;3.15;;;0.98;;
85701;SDS011;76139;50.888;3.882;2024-03-23T13:34:31;6.10;;;1.20;;
85701;SDS011;76139;50.888;3.882;2024-03-23T13:36:58;4.40;;;1.27;;
85701;SDS011;76139;50.888;3.882;2024-03-23T13:39:24;3.10;;;0.88;;
85701;SDS011;76139;50.888;3.882;2024-03-23T13:41:52;3.85;;;1.05;;
85701;SDS011;76139;50.888;3.882;2024-03-23T13:44:18;3.55;;;1.48;;
85701;SDS011;76139;50.888;3.882;2024-03-23T13:46:44;5.30;;;1.27;;
85701;SDS011;76139;50.888;3.882;2024-03-23T13:49:18;4.63;;;1.30;;
85701;SDS011;76139;50.888;3.882;2024-03-23T13:51:49;3.60;;;1.15;;
85701;SDS011;76139;50.888;3.882;2024-03-23T13:54:15;4.32;;;1.25;;
85701;SDS011;76139;50.888;3.882;2024-03-23T13:56:40;6.63;;;1.35;;
85701;SDS011;76139;50.888;3.882;2024-03-23T13:59:06;4.18;;;1.10;;
85701;SDS011;76139;50.888;3.882;2024-03-23T14:01:32;3.20;;;1.17;;
85701;SDS011;76139;50.888;3.882;2024-03-23T14:03:58;4.15;;;1.10;;
85701;SDS011;76139;50.888;3.882;2024-03-23T14:06:24;3.65;;;1.10;;
85701;SDS011;76139;50.888;3.882;2024-03-23T14:08:50;1.65;;;0.88;;
85701;SDS011;76139;50.888;3.882;2024-03-23T14:11:17;4.88;;;1.20;;
85701;SDS011;76139;50.888;3.882;2024-03-23T14:13:43;6.20;;;1.77;;
85701;SDS011;76139;50.888;3.882;2024-03-23T14:16:09;5.03;;;1.50;;
85701;SDS011;76139;50.888;3.882;2024-03-23T14:18:35;5.05;;;1.17;;
85701;SDS011;76139;50.888;3.882;2024-03-23T14:21:01;8.43;;;1.10;;
85701;SDS011;76139;50.888;3.882;2024-03-23T14:23:28;4.15;;;2.08;;
85701;SDS011;76139;50.888;3.882;2024-03-23T14:25:58;5.43;;;1.65;;
85701;SDS011;76139;50.888;3.882;2024-03-23T14:28:23;4.20;;;1.70;;
85701;SDS011;76139;50.888;3.882;2024-03-23T14:30:52;4.88;;;1.65;;
85701;SDS011;76139;50.888;3.882;2024-03-23T14:33:20;3.72;;;1.50;;
85701;SDS011;76139;50.888;3.882;2024-03-23T14:35:52;6.53;;;1.38;;
85701;SDS011;76139;50.888;3.882;2024-03-23T14:38:22;4.80;;;1.60;;
85701;SDS011;76139;50.888;3.882;2024-03-23T14:40:48;6.57;;;1.55;;
85701;SDS011;76139;50.888;3.882;2024-03-23T14:43:14;4.85;;;1.52;;
85701;SDS011;76139;50.888;3.882;2024-03-23T14:48:42;9.65;;;1.45;;
85701;SDS011;76139;50.888;3.882;2024-03-23T14:51:13;3.13;;;1.45;;
85701;SDS011;76139;50.888;3.882;2024-03-23T14:53:41;8.57;;;1.88;;
85701;SDS011;76139;50.888;3.882;2024-03-23T14:56:10;5.35;;;1.67;;
85701;SDS011;76139;50.888;3.882;2024-03-23T14:58:38;7.00;;;1.67;;
85701;SDS011;76139;50.888;3.882;2024-03-23T15:01:05;6.40;;;1.27;;
85701;SDS011;76139;50.888;3.882;2024-03-23T15:03:38;4.57;;;1.30;;
85701;SDS011;76139;50.888;3.882;2024-03-23T15:06:04;5.82;;;1.30;;
85701;SDS011;76139;50.888;3.882;2024-03-23T15:08:30;5.28;;;1.38;;
85701;SDS011;76139;50.888;3.882;2024-03-23T15:10:59;3.83;;;1.20;;
85701;SDS011;76139;50.888;3.882;2024-03-23T15:13:30;5.10;;;1.55;;
85701;SDS011;76139;50.888;3.882;2024-03-23T15:16:02;4.80;;;1.58;;
85701;SDS011;76139;50.888;3.882;2024-03-23T15:18:29;5.15;;;1.50;;
85701;SDS011;76139;50.888;3.882;2024-03-23T15:20:56;4.00;;;1.13;;
85701;SDS011;76139;50.888;3.882;2024-03-23T15:23:30;4.57;;;1.23;;
85701;SDS011;76139;50.888;3.882;2024-03-23T15:25:56;4.85;;;1.20;;
85701;SDS011;76139;50.888;3.882;2024-03-23T15:28:23;5.70;;;1.48;;
85701;SDS011;76139;50.888;3.882;2024-03-23T15:30:49;6.22;;;1.27;;
85701;SDS011;76139;50.888;3.882;2024-03-23T15:33:15;3.70;;;1.10;;
85701;SDS011;76139;50.888;3.882;2024-03-23T15:35:41;4.70;;;1.20;;
85701;SDS011;76139;50.888;3.882;2024-03-23T15:38:06;3.35;;;1.10;;
85701;SDS011;76139;50.888;3.882;2024-03-23T15:40:32;3.40;;;1.13;;
85701;SDS011;76139;50.888;3.882;2024-03-23T15:42:57;2.80;;;1.02;;
85701;SDS011;76139;50.888;3.882;2024-03-23T15:45:23;4.80;;;1.23;;